sensor_id;sensor_type;location;lat;lon;timestamp;temperature;humidity
33109;HTU21D;19481;51.118;6.940;2023-06-04T00:02:15;13.81;31.37
33109;HTU21D;19481;51.118;6.940;2023-06-04T00:07:17;13.66;31.66
33109;HTU21D;19481;51.118;6.940;2023-06-04T00:12:20;13.63;31.70
33109;HTU21D;19481;51.118;6.940;2023-06-04T00:17:21;13.51;32.03
33109;HTU21D;19481;51.118;6.940;2023-06-04T00:22:24;13.45;32.07
33109;HTU21D;19481;51.118;6.940;2023-06-04T00:27:27;13.38;32.12
33109;HTU21D;19481;51.118;6.940;2023-06-04T00:32:28;13.24;32.49
33109;HTU21D;19481;51.118;6.940;2023-06-04T00:37:30;13.15;32.54
33109;HTU21D;19481;51.118;6.940;2023-06-04T00:42:33;13.03;32.83
33109;HTU21D;19481;51.118;6.940;2023-06-04T00:47:35;13.08;32.64
33109;HTU21D;19481;51.118;6.940;2023-06-04T00:52:37;12.84;33.19
33109;HTU21D;19481;51.118;6.940;2023-06-04T00:57:40;12.79;33.25
33109;HTU21D;19481;51.118;6.940;2023-06-04T01:02:43;12.71;33.47
33109;HTU21D;19481;51.118;6.940;2023-06-04T01:07:45;12.56;33.89
33109;HTU21D;19481;51.118;6.940;2023-06-04T01:12:49;12.36;34.53
33109;HTU21D;19481;51.118;6.940;2023-06-04T01:17:53;12.30;34.52
33109;HTU21D;19481;51.118;6.940;2023-06-04T01:23:13;12.17;35.52
33109;HTU21D;19481;51.118;6.940;2023-06-04T01:28:17;11.99;35.21
33109;HTU21D;19481;51.118;6.940;2023-06-04T01:33:20;11.83;35.53
33109;HTU21D;19481;51.118;6.940;2023-06-04T01:38:22;11.64;35.90
33109;HTU21D;19481;51.118;6.940;2023-06-04T01:43:25;11.57;35.95
33109;HTU21D;19481;51.118;6.940;2023-06-04T01:48:27;11.49;36.23
33109;HTU21D;19481;51.118;6.940;2023-06-04T01:53:28;11.34;36.59
33109;HTU21D;19481;51.118;6.940;2023-06-04T01:58:31;11.12;37.18
33109;HTU21D;19481;51.118;6.940;2023-06-04T02:03:34;11.08;37.27
33109;HTU21D;19481;51.118;6.940;2023-06-04T02:08:37;11.04;37.16
33109;HTU21D;19481;51.118;6.940;2023-06-04T02:13:41;10.85;37.73
33109;HTU21D;19481;51.118;6.940;2023-06-04T02:18:43;10.69;38.29
33109;HTU21D;19481;51.118;6.940;2023-06-04T02:23:45;10.67;38.08
33109;HTU21D;19481;51.118;6.940;2023-06-04T02:28:48;10.64;38.13
33109;HTU21D;19481;51.118;6.940;2023-06-04T02:33:50;10.38;38.81
33109;HTU21D;19481;51.118;6.940;2023-06-04T02:38:51;10.30;39.00
33109;HTU21D;19481;51.118;6.940;2023-06-04T02:43:54;10.21;39.07
33109;HTU21D;19481;51.118;6.940;2023-06-04T02:48:56;10.19;39.03
33109;HTU21D;19481;51.118;6.940;2023-06-04T02:53:58;10.03;39.73
33109;HTU21D;19481;51.118;6.940;2023-06-04T02:59:01;9.98;39.76
33109;HTU21D;19481;51.118;6.940;2023-06-04T03:04:02;9.95;39.81
33109;HTU21D;19481;51.118;6.940;2023-06-04T03:09:05;9.89;39.86
33109;HTU21D;19481;51.118;6.940;2023-06-04T03:14:08;9.79;40.28
33109;HTU21D;19481;51.118;6.940;2023-06-04T03:19:10;9.66;40.78
33109;HTU21D;19481;51.118;6.940;2023-06-04T03:24:12;9.63;40.90
33109;HTU21D;19481;51.118;6.940;2023-06-04T03:29:14;9.60;40.78
33109;HTU21D;19481;51.118;6.940;2023-06-04T03:34:16;9.60;40.90
33109;HTU21D;19481;51.118;6.940;2023-06-04T03:39:18;9.57;41.00
33109;HTU21D;19481;51.118;6.940;2023-06-04T03:44:21;9.56;41.35
33109;HTU21D;19481;51.118;6.940;2023-06-04T03:49:23;9.55;41.37
33109;HTU21D;19481;51.118;6.940;2023-06-04T03:54:25;9.61;41.27
33109;HTU21D;19481;51.118;6.940;2023-06-04T03:59:27;9.61;41.32
33109;HTU21D;19481;51.118;6.940;2023-06-04T04:04:29;9.62;41.74
33109;HTU21D;19481;51.118;6.940;2023-06-04T04:09:31;9.61;41.96
33109;HTU21D;19481;51.118;6.940;2023-06-04T04:14:34;9.68;41.86
33109;HTU21D;19481;51.118;6.940;2023-06-04T04:19:35;9.83;41.67
33109;HTU21D;19481;51.118;6.940;2023-06-04T04:24:37;9.91;41.73
33109;HTU21D;19481;51.118;6.940;2023-06-04T04:29:41;10.06;41.62
33109;HTU21D;19481;51.118;6.940;2023-06-04T04:34:50;11.14;40.52
33109;HTU21D;19481;51.118;6.940;2023-06-04T04:39:53;13.56;34.94
33109;HTU21D;19481;51.118;6.940;2023-06-04T04:44:56;15.34;32.29
33109;HTU21D;19481;51.118;6.940;2023-06-04T04:49:58;17.00;30.18
33109;HTU21D;19481;51.118;6.940;2023-06-04T04:54:59;18.55;28.50
33109;HTU21D;19481;51.118;6.940;2023-06-04T05:00:03;19.31;28.48
33109;HTU21D;19481;51.118;6.940;2023-06-04T05:05:06;19.66;29.13
33109;HTU21D;19481;51.118;6.940;2023-06-04T05:10:08;20.05;29.80
33109;HTU21D;19481;51.118;6.940;2023-06-04T05:15:11;18.63;33.52
33109;HTU21D;19481;51.118;6.940;2023-06-04T05:20:13;15.99;39.30
33109;HTU21D;19481;51.118;6.940;2023-06-04T05:25:16;15.38;39.76
33109;HTU21D;19481;51.118;6.940;2023-06-04T05:30:19;19.06;32.31
33109;HTU21D;19481;51.118;6.940;2023-06-04T05:35:21;20.74;30.29
33109;HTU21D;19481;51.118;6.940;2023-06-04T05:40:22;21.74;29.80
33109;HTU21D;19481;51.118;6.940;2023-06-04T05:45:25;23.01;28.78
33109;HTU21D;19481;51.118;6.940;2023-06-04T05:50:27;24.46;27.41
33109;HTU21D;19481;51.118;6.940;2023-06-04T05:55:29;25.01;27.70
33109;HTU21D;19481;51.118;6.940;2023-06-04T06:00:32;24.77;28.90
33109;HTU21D;19481;51.118;6.940;2023-06-04T06:05:33;25.56;28.48
33109;HTU21D;19481;51.118;6.940;2023-06-04T06:10:35;26.43;27.49
33109;HTU21D;19481;51.118;6.940;2023-06-04T06:15:38;26.32;28.27
33109;HTU21D;19481;51.118;6.940;2023-06-04T06:20:40;26.63;28.60
33109;HTU21D;19481;51.118;6.940;2023-06-04T06:25:41;27.23;27.94
33109;HTU21D;19481;51.118;6.940;2023-06-04T06:30:47;27.54;27.50
33109;HTU21D;19481;51.118;6.940;2023-06-04T06:35:48;27.65;27.62
33109;HTU21D;19481;51.118;6.940;2023-06-04T06:40:50;27.87;27.30
33109;HTU21D;19481;51.118;6.940;2023-06-04T06:45:53;27.09;28.36
33109;HTU21D;19481;51.118;6.940;2023-06-04T06:50:55;27.80;27.43
33109;HTU21D;19481;51.118;6.940;2023-06-04T06:55:57;27.72;27.80
33109;HTU21D;19481;51.118;6.940;2023-06-04T07:01:00;27.85;27.33
33109;HTU21D;19481;51.118;6.940;2023-06-04T07:06:02;27.72;27.44
33109;HTU21D;19481;51.118;6.940;2023-06-04T07:11:03;27.34;27.59
33109;HTU21D;19481;51.118;6.940;2023-06-04T07:16:06;28.38;25.62
33109;HTU21D;19481;51.118;6.940;2023-06-04T07:21:08;27.47;26.85
33109;HTU21D;19481;51.118;6.940;2023-06-04T07:26:10;27.80;26.46
33109;HTU21D;19481;51.118;6.940;2023-06-04T07:31:16;27.99;19.92
33109;HTU21D;19481;51.118;6.940;2023-06-04T07:36:18;28.27;25.52
33109;HTU21D;19481;51.118;6.940;2023-06-04T07:41:20;28.29;24.69
33109;HTU21D;19481;51.118;6.940;2023-06-04T07:46:23;27.91;25.37
33109;HTU21D;19481;51.118;6.940;2023-06-04T07:51:25;28.93;23.84
33109;HTU21D;19481;51.118;6.940;2023-06-04T07:56:27;29.75;22.91
33109;HTU21D;19481;51.118;6.940;2023-06-04T08:01:29;29.37;23.36
33109;HTU21D;19481;51.118;6.940;2023-06-04T08:06:31;29.22;23.67
33109;HTU21D;19481;51.118;6.940;2023-06-04T08:11:33;29.78;22.63
33109;HTU21D;19481;51.118;6.940;2023-06-04T08:16:36;29.05;23.17
33109;HTU21D;19481;51.118;6.940;2023-06-04T08:21:38;29.46;22.77
33109;HTU21D;19481;51.118;6.940;2023-06-04T08:26:40;29.02;22.82
33109;HTU21D;19481;51.118;6.940;2023-06-04T08:31:43;28.43;22.71
33109;HTU21D;19481;51.118;6.940;2023-06-04T08:36:45;28.53;22.17
33109;HTU21D;19481;51.118;6.940;2023-06-04T08:41:49;28.06;21.56
33109;HTU21D;19481;51.118;6.940;2023-06-04T08:46:56;28.42;21.07
33109;HTU21D;19481;51.118;6.940;2023-06-04T08:52:03;28.71;20.99
33109;HTU21D;19481;51.118;6.940;2023-06-04T08:57:06;28.79;20.50
33109;HTU21D;19481;51.118;6.940;2023-06-04T09:02:10;28.43;20.12
33109;HTU21D;19481;51.118;6.940;2023-06-04T09:07:13;28.64;20.18
33109;HTU21D;19481;51.118;6.940;2023-06-04T09:12:19;27.50;20.95
33109;HTU21D;19481;51.118;6.940;2023-06-04T09:17:24;27.55;17.11
33109;HTU21D;19481;51.118;6.940;2023-06-04T09:22:32;27.66;13.70
33109;HTU21D;19481;51.118;6.940;2023-06-04T09:27:38;27.60;19.26
33109;HTU21D;19481;51.118;6.940;2023-06-04T09:32:42;27.87;18.89
33109;HTU21D;19481;51.118;6.940;2023-06-04T09:37:53;27.52;13.50
33109;HTU21D;19481;51.118;6.940;2023-06-04T09:42:55;27.58;18.84
33109;HTU21D;19481;51.118;6.940;2023-06-04T09:47:59;27.10;18.70
33109;HTU21D;19481;51.118;6.940;2023-06-04T09:53:12;27.17;14.21
33109;HTU21D;19481;51.118;6.940;2023-06-04T09:58:14;27.49;16.00
33109;HTU21D;19481;51.118;6.940;2023-06-04T10:03:18;26.58;19.18
33109;HTU21D;19481;51.118;6.940;2023-06-04T10:08:25;27.82;18.01
33109;HTU21D;19481;51.118;6.940;2023-06-04T10:13:29;28.49;17.95
33109;HTU21D;19481;51.118;6.940;2023-06-04T10:18:33;26.93;19.04
33109;HTU21D;19481;51.118;6.940;2023-06-04T10:23:35;26.98;18.98
33109;HTU21D;19481;51.118;6.940;2023-06-04T10:28:37;26.64;18.94
33109;HTU21D;19481;51.118;6.940;2023-06-04T10:33:40;27.04;16.63
33109;HTU21D;19481;51.118;6.940;2023-06-04T10:38:45;27.65;16.64
33109;HTU21D;19481;51.118;6.940;2023-06-04T10:43:47;27.58;17.80
33109;HTU21D;19481;51.118;6.940;2023-06-04T10:48:53;27.46;17.92
33109;HTU21D;19481;51.118;6.940;2023-06-04T10:53:55;28.53;16.93
33109;HTU21D;19481;51.118;6.940;2023-06-04T10:58:57;28.04;17.86
33109;HTU21D;19481;51.118;6.940;2023-06-04T11:04:00;27.69;18.09
33109;HTU21D;19481;51.118;6.940;2023-06-04T11:09:02;28.09;17.87
33109;HTU21D;19481;51.118;6.940;2023-06-04T11:14:09;27.93;16.35
33109;HTU21D;19481;51.118;6.940;2023-06-04T11:19:14;28.34;16.45
33109;HTU21D;19481;51.118;6.940;2023-06-04T11:24:16;27.95;17.94
33109;HTU21D;19481;51.118;6.940;2023-06-04T11:29:17;27.99;18.15
33109;HTU21D;19481;51.118;6.940;2023-06-04T11:34:24;27.88;14.59
33109;HTU21D;19481;51.118;6.940;2023-06-04T11:39:34;27.57;17.32
33109;HTU21D;19481;51.118;6.940;2023-06-04T11:44:36;28.41;17.13
33109;HTU21D;19481;51.118;6.940;2023-06-04T11:49:39;27.99;16.77
33109;HTU21D;19481;51.118;6.940;2023-06-04T11:54:43;28.31;17.38
33109;HTU21D;19481;51.118;6.940;2023-06-04T11:59:45;28.59;17.13
33109;HTU21D;19481;51.118;6.940;2023-06-04T12:04:48;28.79;15.80
33109;HTU21D;19481;51.118;6.940;2023-06-04T12:09:49;28.64;17.04
33109;HTU21D;19481;51.118;6.940;2023-06-04T12:14:58;28.73;15.10
33109;HTU21D;19481;51.118;6.940;2023-06-04T12:20:02;28.15;17.64
33109;HTU21D;19481;51.118;6.940;2023-06-04T12:25:06;28.47;17.06
33109;HTU21D;19481;51.118;6.940;2023-06-04T12:30:08;27.60;18.14
33109;HTU21D;19481;51.118;6.940;2023-06-04T12:35:11;28.11;16.61
33109;HTU21D;19481;51.118;6.940;2023-06-04T12:40:12;28.40;17.09
33109;HTU21D;19481;51.118;6.940;2023-06-04T12:45:14;28.37;17.10
33109;HTU21D;19481;51.118;6.940;2023-06-04T12:50:17;28.12;17.40
33109;HTU21D;19481;51.118;6.940;2023-06-04T12:55:19;28.59;16.99
33109;HTU21D;19481;51.118;6.940;2023-06-04T13:00:21;28.49;17.24
33109;HTU21D;19481;51.118;6.940;2023-06-04T13:05:24;28.20;17.60
33109;HTU21D;19481;51.118;6.940;2023-06-04T13:10:26;28.65;16.99
33109;HTU21D;19481;51.118;6.940;2023-06-04T13:15:27;27.74;18.12
33109;HTU21D;19481;51.118;6.940;2023-06-04T13:20:31;28.59;16.28
33109;HTU21D;19481;51.118;6.940;2023-06-04T13:25:32;27.97;17.64
33109;HTU21D;19481;51.118;6.940;2023-06-04T13:30:35;28.12;17.49
33109;HTU21D;19481;51.118;6.940;2023-06-04T13:35:38;28.12;17.45
33109;HTU21D;19481;51.118;6.940;2023-06-04T13:40:40;27.88;17.70
33109;HTU21D;19481;51.118;6.940;2023-06-04T13:45:43;28.03;17.61
33109;HTU21D;19481;51.118;6.940;2023-06-04T13:50:47;28.26;17.60
33109;HTU21D;19481;51.118;6.940;2023-06-04T13:55:49;27.90;18.03
33109;HTU21D;19481;51.118;6.940;2023-06-04T14:00:57;28.00;17.69
33109;HTU21D;19481;51.118;6.940;2023-06-04T14:06:00;27.82;17.80
33109;HTU21D;19481;51.118;6.940;2023-06-04T14:11:02;27.59;18.09
33109;HTU21D;19481;51.118;6.940;2023-06-04T14:16:04;27.72;17.90
33109;HTU21D;19481;51.118;6.940;2023-06-04T14:21:07;27.86;17.66
33109;HTU21D;19481;51.118;6.940;2023-06-04T14:26:09;28.24;17.51
33109;HTU21D;19481;51.118;6.940;2023-06-04T14:31:10;27.76;18.15
33109;HTU21D;19481;51.118;6.940;2023-06-04T14:36:13;27.85;18.05
33109;HTU21D;19481;51.118;6.940;2023-06-04T14:41:15;27.47;18.39
33109;HTU21D;19481;51.118;6.940;2023-06-04T14:46:17;27.73;17.96
33109;HTU21D;19481;51.118;6.940;2023-06-04T14:51:20;27.14;18.49
33109;HTU21D;19481;51.118;6.940;2023-06-04T14:56:22;27.16;18.63
33109;HTU21D;19481;51.118;6.940;2023-06-04T15:01:24;27.20;18.49
33109;HTU21D;19481;51.118;6.940;2023-06-04T15:06:27;26.82;18.91
33109;HTU21D;19481;51.118;6.940;2023-06-04T15:11:28;27.14;18.52
33109;HTU21D;19481;51.118;6.940;2023-06-04T15:16:30;27.01;18.71
33109;HTU21D;19481;51.118;6.940;2023-06-04T15:21:33;26.89;18.79
33109;HTU21D;19481;51.118;6.940;2023-06-04T15:26:35;26.98;18.83
33109;HTU21D;19481;51.118;6.940;2023-06-04T15:31:36;27.07;18.83
33109;HTU21D;19481;51.118;6.940;2023-06-04T15:36:39;26.61;19.02
33109;HTU21D;19481;51.118;6.940;2023-06-04T15:41:41;26.22;19.54
33109;HTU21D;19481;51.118;6.940;2023-06-04T15:46:43;26.34;19.18
33109;HTU21D;19481;51.118;6.940;2023-06-04T15:51:46;26.22;19.13
33109;HTU21D;19481;51.118;6.940;2023-06-04T15:56:48;26.11;19.19
33109;HTU21D;19481;51.118;6.940;2023-06-04T16:01:50;26.33;18.85
33109;HTU21D;19481;51.118;6.940;2023-06-04T16:06:53;26.15;18.84
33109;HTU21D;19481;51.118;6.940;2023-06-04T16:11:55;26.08;18.96
33109;HTU21D;19481;51.118;6.940;2023-06-04T16:16:56;25.81;19.15
33109;HTU21D;19481;51.118;6.940;2023-06-04T16:21:59;25.93;18.48
33109;HTU21D;19481;51.118;6.940;2023-06-04T16:27:01;25.77;18.89
33109;HTU21D;19481;51.118;6.940;2023-06-04T16:32:03;25.67;19.09
33109;HTU21D;19481;51.118;6.940;2023-06-04T16:37:06;25.54;19.05
33109;HTU21D;19481;51.118;6.940;2023-06-04T16:42:07;25.16;19.52
33109;HTU21D;19481;51.118;6.940;2023-06-04T16:47:10;25.24;19.20
33109;HTU21D;19481;51.118;6.940;2023-06-04T16:52:13;24.80;19.60
33109;HTU21D;19481;51.118;6.940;2023-06-04T16:57:15;24.71;19.67
33109;HTU21D;19481;51.118;6.940;2023-06-04T17:02:16;24.58;19.71
33109;HTU21D;19481;51.118;6.940;2023-06-04T17:07:19;24.50;19.60
33109;HTU21D;19481;51.118;6.940;2023-06-04T17:12:21;24.24;19.65
33109;HTU21D;19481;51.118;6.940;2023-06-04T17:17:22;24.26;19.72
33109;HTU21D;19481;51.118;6.940;2023-06-04T17:22:25;24.34;19.57
33109;HTU21D;19481;51.118;6.940;2023-06-04T17:27:27;24.09;19.86
33109;HTU21D;19481;51.118;6.940;2023-06-04T17:32:29;23.96;19.92
33109;HTU21D;19481;51.118;6.940;2023-06-04T17:37:32;23.79;20.01
33109;HTU21D;19481;51.118;6.940;2023-06-04T17:42:33;23.76;19.86
33109;HTU21D;19481;51.118;6.940;2023-06-04T17:47:35;23.72;19.79
33109;HTU21D;19481;51.118;6.940;2023-06-04T17:52:38;23.66;19.74
33109;HTU21D;19481;51.118;6.940;2023-06-04T17:57:40;23.54;19.97
33109;HTU21D;19481;51.118;6.940;2023-06-04T18:02:41;23.43;19.97
33109;HTU21D;19481;51.118;6.940;2023-06-04T18:07:44;23.31;19.99
33109;HTU21D;19481;51.118;6.940;2023-06-04T18:12:46;23.25;20.05
33109;HTU21D;19481;51.118;6.940;2023-06-04T18:17:48;23.10;20.21
33109;HTU21D;19481;51.118;6.940;2023-06-04T18:22:51;23.03;20.20
33109;HTU21D;19481;51.118;6.940;2023-06-04T18:27:53;22.91;20.46
33109;HTU21D;19481;51.118;6.940;2023-06-04T18:32:54;22.76;20.62
33109;HTU21D;19481;51.118;6.940;2023-06-04T18:37:57;22.67;20.67
33109;HTU21D;19481;51.118;6.940;2023-06-04T18:42:59;22.51;20.95
33109;HTU21D;19481;51.118;6.940;2023-06-04T18:48:00;22.48;20.89
33109;HTU21D;19481;51.118;6.940;2023-06-04T18:53:03;22.23;21.28
33109;HTU21D;19481;51.118;6.940;2023-06-04T18:58:05;22.17;21.31
33109;HTU21D;19481;51.118;6.940;2023-06-04T19:03:09;21.94;21.69
33109;HTU21D;19481;51.118;6.940;2023-06-04T19:08:12;21.65;22.29
33109;HTU21D;19481;51.118;6.940;2023-06-04T19:13:13;21.47;22.55
33109;HTU21D;19481;51.118;6.940;2023-06-04T19:18:15;21.51;22.25
33109;HTU21D;19481;51.118;6.940;2023-06-04T19:23:18;21.20;22.83
33109;HTU21D;19481;51.118;6.940;2023-06-04T19:28:19;21.21;22.59
33109;HTU21D;19481;51.118;6.940;2023-06-04T19:33:21;21.14;22.61
33109;HTU21D;19481;51.118;6.940;2023-06-04T19:38:24;21.02;22.83
33109;HTU21D;19481;51.118;6.940;2023-06-04T19:43:25;20.88;22.97
33109;HTU21D;19481;51.118;6.940;2023-06-04T19:48:28;20.57;23.46
33109;HTU21D;19481;51.118;6.940;2023-06-04T19:53:31;20.37;23.79
33109;HTU21D;19481;51.118;6.940;2023-06-04T19:58:33;20.16;24.07
33109;HTU21D;19481;51.118;6.940;2023-06-04T20:03:34;19.89;24.50
33109;HTU21D;19481;51.118;6.940;2023-06-04T20:08:37;19.73;24.85
33109;HTU21D;19481;51.118;6.940;2023-06-04T20:13:39;19.60;25.12
33109;HTU21D;19481;51.118;6.940;2023-06-04T20:18:41;19.39;25.59
33109;HTU21D;19481;51.118;6.940;2023-06-04T20:23:44;19.17;26.10
33109;HTU21D;19481;51.118;6.940;2023-06-04T20:28:46;19.02;26.40
33109;HTU21D;19481;51.118;6.940;2023-06-04T20:33:48;18.85;26.80
33109;HTU21D;19481;51.118;6.940;2023-06-04T20:38:53;18.70;27.07
33109;HTU21D;19481;51.118;6.940;2023-06-04T20:43:56;18.58;27.26
33109;HTU21D;19481;51.118;6.940;2023-06-04T20:48:57;18.39;27.75
33109;HTU21D;19481;51.118;6.940;2023-06-04T20:54:04;18.20;28.23
33109;HTU21D;19481;51.118;6.940;2023-06-04T20:59:05;18.13;28.13
33109;HTU21D;19481;51.118;6.940;2023-06-04T21:04:07;17.87;28.74
33109;HTU21D;19481;51.118;6.940;2023-06-04T21:09:12;17.82;28.71
33109;HTU21D;19481;51.118;6.940;2023-06-04T21:14:13;17.63;29.07
33109;HTU21D;19481;51.118;6.940;2023-06-04T21:19:15;17.44;29.50
33109;HTU21D;19481;51.118;6.940;2023-06-04T21:24:18;17.39;29.64
33109;HTU21D;19481;51.118;6.940;2023-06-04T21:29:19;17.20;30.01
33109;HTU21D;19481;51.118;6.940;2023-06-04T21:34:21;16.99;30.48
33109;HTU21D;19481;51.118;6.940;2023-06-04T21:39:24;16.74;31.19
33109;HTU21D;19481;51.118;6.940;2023-06-04T21:44:25;16.64;31.29
33109;HTU21D;19481;51.118;6.940;2023-06-04T21:49:27;16.65;31.19
33109;HTU21D;19481;51.118;6.940;2023-06-04T21:54:30;16.61;31.35
33109;HTU21D;19481;51.118;6.940;2023-06-04T21:59:31;16.52;31.41
33109;HTU21D;19481;51.118;6.940;2023-06-04T22:04:33;16.35;31.83
33109;HTU21D;19481;51.118;6.940;2023-06-04T22:09:36;16.32;31.93
33109;HTU21D;19481;51.118;6.940;2023-06-04T22:14:38;16.14;32.33
33109;HTU21D;19481;51.118;6.940;2023-06-04T22:19:40;16.08;32.40
33109;HTU21D;19481;51.118;6.940;2023-06-04T22:24:43;15.95;32.75
33109;HTU21D;19481;51.118;6.940;2023-06-04T22:29:45;15.75;33.30
33109;HTU21D;19481;51.118;6.940;2023-06-04T22:34:46;15.74;33.31
33109;HTU21D;19481;51.118;6.940;2023-06-04T22:39:49;15.62;33.74
33109;HTU21D;19481;51.118;6.940;2023-06-04T22:44:51;15.58;33.74
33109;HTU21D;19481;51.118;6.940;2023-06-04T22:49:52;15.45;33.96
33109;HTU21D;19481;51.118;6.940;2023-06-04T22:54:55;15.36;34.24
33109;HTU21D;19481;51.118;6.940;2023-06-04T22:59:57;15.28;34.38
33109;HTU21D;19481;51.118;6.940;2023-06-04T23:04:58;15.25;34.53
33109;HTU21D;19481;51.118;6.940;2023-06-04T23:10:02;15.24;34.78
33109;HTU21D;19481;51.118;6.940;2023-06-04T23:15:07;15.22;34.54
33109;HTU21D;19481;51.118;6.940;2023-06-04T23:20:11;15.12;34.89
33109;HTU21D;19481;51.118;6.940;2023-06-04T23:25:14;15.04;35.11
33109;HTU21D;19481;51.118;6.940;2023-06-04T23:30:16;15.17;34.67
33109;HTU21D;19481;51.118;6.940;2023-06-04T23:35:19;15.03;35.10
33109;HTU21D;19481;51.118;6.940;2023-06-04T23:40:22;15.06;35.07
33109;HTU21D;19481;51.118;6.940;2023-06-04T23:45:23;14.93;35.40
33109;HTU21D;19481;51.118;6.940;2023-06-04T23:50:25;14.95;35.33
33109;HTU21D;19481;51.118;6.940;2023-06-04T23:55:28;14.83;35.62
